Flight Track Log - Related Links

Times and Time Zones

All times are in EDT time to prevent confusion due to time zone crossing. See the JBU527 flight status page for this flight to view local times or setup timezone preferences in your user account.

Time Position Orientation Groundspeed Altitude Reporting Facility
EDT Latitude Longitude Course Direction KTS MPH feet Rate Location/Type
Fri 10:46:27 PM 40.6734 -74.1802 11° North 164 189 1,000  Level FlightAware ADS-B
Fri 10:46:32 PM 40.6698 -74.1818 199° South 161 185 1,200 2,769 Climbing FlightAware ADS-B
Fri 10:46:40 PM 40.6636 -74.1823 184° South 164 189 1,600 2,571 Climbing FlightAware ADS-B
Fri 10:46:46 PM 40.6586 -74.1816 174° South 175 201 1,800 1,846 Climbing FlightAware ADS-B
Fri 10:46:53 PM 40.6536 -74.1807 172° South 180 207 2,000 1,636 Climbing FlightAware ADS-B
Fri 10:46:57 PM 40.6503 -74.1806 179° South 181 208 2,100 1,714 Climbing FlightAware ADS-B
Fri 10:47:00 PM 40.6476 -74.1811 188° South 180 207 2,200 2,000 Climbing FlightAware ADS-B
Fri 10:47:03 PM 40.6449 -74.1821 196° South 178 205 2,300 1,000 Climbing FlightAware ADS-B
Fri 10:47:06 PM 40.6425 -74.1835 204° Southwest 179 206 2,300 857 Level FlightAware ADS-B
Fri 10:47:10 PM 40.6398 -74.1858 213° Southwest 179 206 2,400 1,333 Climbing FlightAware ADS-B
Fri 10:47:15 PM 40.6372 -74.1891 224° Southwest 183 211 2,500 1,500 Climbing FlightAware ADS-B
Fri 10:47:18 PM 40.6356 -74.1922 236° Southwest 188 216 2,600 1,200 Climbing FlightAware ADS-B
Fri 10:47:25 PM 40.6334 -74.1998 249° West 200 230 2,700 1,091 Climbing FlightAware ADS-B
Fri 10:47:29 PM 40.6329 -74.2050 263° West 210 242 2,800 1,500 Climbing FlightAware ADS-B
Fri 10:47:33 PM 40.6327 -74.2103 267° West 215 247 2,900 2,000 Climbing FlightAware ADS-B
Fri 10:47:44 PM 40.6329 -74.2250 271° West 229 264 3,300 2,769 Climbing FlightAware ADS-B
Fri 10:47:59 PM 40.6338 -74.2470 273° West 233 268 4,100 3,500 Climbing FlightAware ADS-B
Fri 10:48:08 PM 40.6345 -74.2593 274° West 231 266 4,700 3,750 Climbing FlightAware ADS-B
Fri 10:48:15 PM 40.6351 -74.2683 275° West 233 268 5,100 3,600 Climbing FlightAware ADS-B
Fri 10:48:23 PM 40.6359 -74.2796 275° West 232 267 5,600 3,652 Climbing FlightAware ADS-B
Fri 10:48:38 PM 40.6376 -74.3005 276° West 236 272 6,500 3,375 Climbing FlightAware ADS-B
Fri 10:48:39 PM 40.6378 -74.3025 278° West 235 270 6,500 2,824 Level FlightAware ADS-B
Fri 10:48:55 PM 40.6399 -74.3263 277° West 243 280 7,300 2,842 Climbing FlightAware ADS-B
Fri 10:48:58 PM 40.6402 -74.3295 277° West 241 277 7,400 3,000 Climbing FlightAware ADS-B
Fri 10:49:09 PM 40.6417 -74.3460 277° West 247 284 8,000 3,000 Climbing FlightAware ADS-B
Fri 10:49:16 PM 40.6428 -74.3574 277° West 250 288 8,300 2,800 Climbing FlightAware ADS-B
Fri 10:49:24 PM 40.6441 -74.3686 279° West 253 291 8,700 3,130 Climbing FlightAware ADS-B
Fri 10:49:39 PM 40.6470 -74.3916 279° West 254 292 9,500 3,130 Climbing FlightAware ADS-B
Fri 10:49:47 PM 40.6487 -74.4034 281° West 253 291 9,900 2,400 Climbing FlightAware ADS-B
Fri 10:50:09 PM 40.6539 -74.4391 281° West 274 315 10,700 1,765 Climbing FlightAware ADS-B
Fri 10:50:21 PM 40.6559 -74.4593 277° West 282 325 10,900 837 Climbing FlightAware ADS-B
Fri 10:50:52 PM 40.6582 -74.5156 273° West 319 367 11,300 615 Climbing FlightAware ADS-B
Fri 10:51:00 PM 40.6582 -74.5306 270° West 317 365 11,300  Level FlightAware ADS-B
Fri 10:51:06 PM 40.6567 -74.5424 260° West 310 357 11,300  Level FlightAware ADS-B
Fri 10:51:13 PM 40.6539 -74.5540 252° West 302 348 11,300  Level FlightAware ADS-B
Fri 10:51:43 PM 40.6358 -74.6032 244° Southwest 297 342 11,300  Level FlightAware ADS-B
Fri 10:51:58 PM 40.6261 -74.6284 243° Southwest 295 339 11,300  Level FlightAware ADS-B
Fri 10:52:09 PM 40.6184 -74.6443 237° Southwest 293 337 11,300 878 Level FlightAware ADS-B
Fri 10:52:39 PM 40.5929 -74.6861 231° Southwest 290 334 11,900 2,656 Climbing FlightAware ADS-B
Fri 10:53:10 PM 40.5685 -74.7265 232° Southwest 268 308 14,000 3,290 Climbing FlightAware ADS-B
Fri 10:53:41 PM 40.5448 -74.7657 232° Southwest 272 313 15,300 2,066 Climbing FlightAware ADS-B
Fri 10:54:11 PM 40.5204 -74.8058 231° Southwest 288 331 16,100 1,600 Climbing FlightAware ADS-B
Fri 10:54:41 PM 40.4946 -74.8482 231° Southwest 303 349 16,900 1,574 Climbing FlightAware ADS-B
Fri 10:55:12 PM 40.4672 -74.8934 231° Southwest 315 362 17,700 1,475 Climbing FlightAware ADS-B
Fri 10:55:42 PM 40.4389 -74.9399 231° Southwest 329 379 18,400 1,440 Climbing FlightAware ADS-B
Fri 10:56:02 PM 40.4198 -74.9714 231° Southwest 336 387 18,900 1,529 Climbing FlightAware ADS-B
Fri 10:56:33 PM 40.3871 -75.0178 227° Southwest 346 398 19,700 1,672 Climbing FlightAware ADS-B
Fri 10:57:03 PM 40.3539 -75.0644 227° Southwest 349 402 20,600 2,900 Climbing FlightAware ADS-B
Fri 10:57:33 PM 40.3221 -75.1092 227° Southwest 320 368 22,600 3,194 Climbing FlightAware ADS-B
Fri 10:58:05 PM 40.2908 -75.1532 227° Southwest 311 358 23,900 2,000 Climbing FlightAware ADS-B
Fri 10:58:36 PM 40.2605 -75.1956 227° Southwest 315 362 24,700 1,377 Climbing FlightAware ADS-B
Fri 10:59:06 PM 40.2302 -75.2379 227° Southwest 323 372 25,300 1,200 Climbing FlightAware ADS-B
Fri 10:59:36 PM 40.1991 -75.2811 227° Southwest 330 380 25,900 1,279 Climbing FlightAware ADS-B
Fri 11:00:07 PM 40.1663 -75.3267 227° Southwest 337 388 26,600 1,279 Climbing FlightAware ADS-B
Fri 11:00:37 PM 40.1335 -75.3723 227° Southwest 343 395 27,200 1,180 Climbing FlightAware ADS-B
Fri 11:01:08 PM 40.1005 -75.4182 227° Southwest 348 400 27,800 1,180 Climbing FlightAware ADS-B
Fri 11:01:38 PM 40.0669 -75.4648 227° Southwest 352 405 28,400 1,180 Climbing FlightAware ADS-B
Fri 11:02:09 PM 40.0322 -75.5128 227° Southwest 355 409 29,000 1,180 Climbing FlightAware ADS-B
Fri 11:02:39 PM 39.9981 -75.5601 227° Southwest 358 412 29,600 1,200 Climbing FlightAware ADS-B
Fri 11:03:09 PM 39.9637 -75.6074 227° Southwest 360 414 30,200 1,161 Climbing FlightAware ADS-B
Fri 11:03:41 PM 39.9270 -75.6580 227° Southwest 362 417 30,800 1,179 Climbing FlightAware ADS-B
Fri 11:04:05 PM 39.9006 -75.6977 229° Southwest 364 419 31,300 1,179 Climbing FlightAware ADS-B
Fri 11:04:37 PM 39.8667 -75.7522 231° Southwest 365 420 31,900 1,143 Climbing FlightAware ADS-B
Fri 11:05:08 PM 39.8344 -75.8043 231° Southwest 363 418 32,500 1,161 Climbing FlightAware ADS-B
Fri 11:05:39 PM 39.8020 -75.8563 231° Southwest 363 418 33,100 1,279 Climbing FlightAware ADS-B
Fri 11:06:09 PM 39.7694 -75.9080 231° Southwest 360 414 33,800 900 Climbing FlightAware ADS-B
Fri 11:06:39 PM 39.7375 -75.9586 231° Southwest 368 423 34,000 197 Climbing FlightAware ADS-B
Fri 11:07:10 PM 39.7043 -76.0113 231° Southwest 377 434 34,000  Level FlightAware ADS-B
Fri 11:07:40 PM 39.6710 -76.0640 231° Southwest 367 422 34,000  Level FlightAware ADS-B
Fri 11:08:11 PM 39.6384 -76.1158 231° Southwest 364 419 34,000  Level FlightAware ADS-B
Fri 11:08:44 PM 39.6038 -76.1706 231° Southwest 365 420 34,000  Level FlightAware ADS-B
Fri 11:09:15 PM 39.5701 -76.2231 230° Southwest 366 421 34,000  Level FlightAware ADS-B
Fri 11:09:46 PM 39.5357 -76.2759 230° Southwest 364 419 34,000  Level FlightAware ADS-B
Fri 11:10:16 PM 39.5033 -76.3255 230° Southwest 360 414 34,000  Level FlightAware ADS-B
Fri 11:10:47 PM 39.4708 -76.3752 230° Southwest 357 411 34,000  Level FlightAware ADS-B
Fri 11:11:17 PM 39.4392 -76.4241 230° Southwest 354 407 34,000  Level FlightAware ADS-B
Fri 11:11:49 PM 39.4061 -76.4767 231° Southwest 351 404 34,000  Level FlightAware ADS-B
Fri 11:12:20 PM 39.3740 -76.5274 231° Southwest 349 402 34,000  Level FlightAware ADS-B
Fri 11:12:52 PM 39.3420 -76.5778 231° Southwest 349 402 34,000 290 Level FlightAware ADS-B
Fri 11:13:22 PM 39.3109 -76.6266 231° Southwest 354 407 34,300 774 Climbing FlightAware ADS-B
Fri 11:13:54 PM 39.2781 -76.6779 230° Southwest 354 407 34,800 1,065 Climbing FlightAware ADS-B
Fri 11:14:24 PM 39.2468 -76.7268 230° Southwest 350 403 35,400 1,082 Climbing FlightAware ADS-B
Fri 11:14:55 PM 39.2150 -76.7765 230° Southwest 349 402 35,900 581 Climbing FlightAware ADS-B
Fri 11:15:26 PM 39.1827 -76.8267 230° Southwest 347 399 36,000 97 Climbing FlightAware ADS-B
Fri 11:15:57 PM 39.1521 -76.8743 230° Southwest 342 394 36,000  Level FlightAware ADS-B
Fri 11:16:27 PM 39.1215 -76.9219 230° Southwest 342 394 36,000  Level FlightAware ADS-B
Fri 11:16:57 PM 39.0911 -76.9691 230° Southwest 340 391 36,000  Level FlightAware ADS-B
Fri 11:17:28 PM 39.0600 -77.0166 230° Southwest 343 395 36,000  Level FlightAware ADS-B
Fri 11:17:41 PM 39.0458 -77.0354 226° Southwest 342 394 36,000  Level FlightAware ADS-B
Fri 11:17:53 PM 39.0317 -77.0518 222° Southwest 341 392 36,000 136 Level FlightAware ADS-B
Fri 11:18:25 PM 38.9929 -77.0943 220° Southwest 343 395 36,100 95 Climbing FlightAware ADS-B
Fri 11:18:56 PM 38.9553 -77.1359 221° Southwest 343 395 36,100  Level FlightAware ADS-B
Fri 11:19:27 PM 38.9184 -77.1766 221° Southwest 342 394 36,100  Level FlightAware ADS-B
Fri 11:19:57 PM 38.8823 -77.2162 220° Southwest 341 392 36,100 -98 Level FlightAware ADS-B
Fri 11:20:28 PM 38.8458 -77.2562 220° Southwest 340 391 36,000 -95 Descending FlightAware ADS-B
Fri 11:21:00 PM 38.8074 -77.2983 221° Southwest 340 391 36,000  Level FlightAware ADS-B
Fri 11:21:32 PM 38.7692 -77.3403 221° Southwest 340 391 36,000  Level FlightAware ADS-B
Fri 11:22:02 PM 38.7331 -77.3796 220° Southwest 341 392 36,000  Level FlightAware ADS-B
Fri 11:22:33 PM 38.6963 -77.4196 220° Southwest 341 392 36,000  Level FlightAware ADS-B
Fri 11:23:03 PM 38.6597 -77.4593 220° Southwest 341 392 36,000  Level FlightAware ADS-B
Fri 11:23:34 PM 38.6222 -77.4999 220° Southwest 341 392 36,000  Level FlightAware ADS-B
Fri 11:24:05 PM 38.5858 -77.5392 220° Southwest 341 392 36,000  Level FlightAware ADS-B
Fri 11:24:36 PM 38.5484 -77.5798 220° Southwest 340 391 36,000  Level FlightAware ADS-B
Fri 11:25:07 PM 38.5114 -77.6198 220° Southwest 343 395 36,000  Level FlightAware ADS-B
Fri 11:25:37 PM 38.4738 -77.6600 220° Southwest 353 406 36,000  Level FlightAware ADS-B
Fri 11:26:07 PM 38.4364 -77.7003 220° Southwest 353 406 36,000  Level FlightAware ADS-B
Fri 11:26:37 PM 38.3989 -77.7410 220° Southwest 351 404 36,000  Level FlightAware ADS-B
Fri 11:27:08 PM 38.3609 -77.7822 220° Southwest 350 403 36,000  Level FlightAware ADS-B
Fri 11:27:41 PM 38.3201 -77.8261 220° Southwest 347 399 36,000  Level FlightAware ADS-B
Fri 11:28:15 PM 38.2791 -77.8702 220° Southwest 340 391 36,000  Level FlightAware ADS-B
Fri 11:28:47 PM 38.2412 -77.9107 220° Southwest 336 387 36,000  Level FlightAware ADS-B
Fri 11:29:19 PM 38.2033 -77.9510 220° Southwest 339 390 36,000 -95 Level FlightAware ADS-B
Fri 11:29:50 PM 38.1661 -77.9907 220° Southwest 334 384 35,900 -581 Descending FlightAware ADS-B
Fri 11:30:21 PM 38.1299 -78.0293 220° Southwest 335 386 35,400 -952 Descending FlightAware ADS-B
Fri 11:30:53 PM 38.0915 -78.0700 220° Southwest 345 397 34,900 -1,000 Descending FlightAware ADS-B
Fri 11:31:27 PM 38.0485 -78.1155 220° Southwest 351 404 34,300 -730 Descending FlightAware ADS-B
Fri 11:32:07 PM 38.0110 -78.1550 220° Southwest 353 406 34,000 -240 Descending FlightAware ADS-B
Fri 11:32:42 PM 37.9620 -78.2040 218° Southwest 353 406 34,000  Level FlightAware ADS-B
Fri 11:33:42 PM 37.8880 -78.2730 216° Southwest 350 403 34,000  Level FlightAware ADS-B
Fri 11:34:27 PM 37.8240 -78.3340 217° Southwest 349 402 34,000 -375 Level FlightAware ADS-B
Fri 11:35:02 PM 37.7750 -78.3800 217° Southwest 344 396 33,500 -900 Descending FlightAware ADS-B
Fri 11:36:07 PM 37.6930 -78.4580 217° Southwest 345 397 32,500 -600 Descending FlightAware ADS-B
Fri 11:36:42 PM 37.6540 -78.4950 217° Southwest 345 397 32,500  Level FlightAware ADS-B
Fri 11:37:32 PM 37.6000 -78.5470 217° Southwest 345 397 32,500  Level FlightAware ADS-B
Fri 11:38:12 PM 37.5570 -78.5880 217° Southwest 345 397 32,500  Level FlightAware ADS-B
Fri 11:38:52 PM 37.5130 -78.6290 216° Southwest 345 397 32,500 -353 Level FlightAware ADS-B
Fri 11:39:37 PM 37.4190 -78.7170 217° Southwest 350 403 32,000 -353 Descending FlightAware ADS-B
Fri 11:40:17 PM 37.3620 -78.7700 216° Southwest 350 403 32,000  Level FlightAware ADS-B
Fri 11:41:12 PM 37.2960 -78.8320 217° Southwest 350 403 32,000  Level FlightAware ADS-B
Fri 11:42:17 PM 37.2160 -78.9070 217° Southwest 350 403 32,000  Level FlightAware ADS-B
Fri 11:42:57 PM 37.1720 -78.9490 217° Southwest 350 403 32,000  Level FlightAware ADS-B
Fri 11:43:37 PM 37.1280 -78.9910 217° Southwest 350 403 32,000  Level FlightAware ADS-B
Fri 11:44:17 PM 37.0840 -79.0320 217° Southwest 350 403 32,000  Level FlightAware ADS-B
Fri 11:45:07 PM 37.0290 -79.0840 217° Southwest 350 403 32,000  Level FlightAware ADS-B
Fri 11:45:47 PM 36.9850 -79.1260 217° Southwest 350 403 32,000  Level FlightAware ADS-B
Fri 11:46:27 PM 36.9410 -79.1670 217° Southwest 350 403 32,000  Level FlightAware ADS-B
Fri 11:47:07 PM 36.8970 -79.2080 217° Southwest 350 403 32,000  Level FlightAware ADS-B
Fri 11:47:47 PM 36.8530 -79.2500 217° Southwest 350 403 32,000  Level FlightAware ADS-B
Fri 11:48:27 PM 36.8090 -79.2910 217° Southwest 350 403 32,000  Level FlightAware ADS-B
Fri 11:49:07 PM 36.7650 -79.3330 217° Southwest 350 403 32,000  Level FlightAware ADS-B
Fri 11:49:47 PM 36.7210 -79.3740 217° Southwest 350 403 32,000  Level FlightAware ADS-B
Fri 11:50:37 PM 36.6660 -79.4260 217° Southwest 350 403 32,000  Level FlightAware ADS-B
Fri 11:50:57 PM 36.6440 -79.4460 216° Southwest 350 403 32,000  Level FlightAware ADS-B
Fri 11:51:37 PM 36.6000 -79.4880 217° Southwest 350 403 32,000  Level FlightAware ADS-B
Fri 11:52:05 PM 36.4172 -79.6347 217° Southwest 367 422 32,000  Level Atlanta Center
Fri 11:53:05 PM 36.3406 -79.7086 218° Southwest 368 423 32,000  Level Atlanta Center
Fri 11:54:05 PM 36.2678 -79.7717 215° Southwest 368 423 32,000  Level Atlanta Center
Fri 11:55:05 PM 36.1908 -79.8428 217° Southwest 362 417 32,000  Level Atlanta Center
Fri 11:56:05 PM 36.1097 -79.9086 213° Southwest 356 410 32,000  Level Atlanta Center
Fri 11:57:05 PM 36.0289 -79.9819 216° Southwest 356 410 32,000  Level Atlanta Center
Fri 11:58:05 PM 35.9303 -80.0306 202° Southwest 356 410 32,000  Level Atlanta Center
Fri 11:59:05 PM 35.8400 -80.0786 203° Southwest 356 410 32,000  Level Atlanta Center
Sat 12:05:07 AM 35.2810 -80.3600 203° Southwest 369 425 32,000  Level FlightAware ADS-B
Sat 12:05:47 AM 35.2190 -80.3910 202° Southwest 370 426 32,000 80 Level FlightAware ADS-B
Sat 12:06:22 AM 35.1660 -80.4170 202° Southwest 370 426 32,100  Climbing FlightAware ADS-B
Sat 12:07:02 AM 35.1520 -80.4240 202° Southwest 369 425 32,000 -63 Descending FlightAware ADS-B
Sat 12:07:57 AM 35.0150 -80.4920 202° Southwest 371 427 32,000  Level FlightAware ADS-B
Sat 12:08:47 AM 34.9370 -80.5310 202° Southwest 372 428 32,000  Level FlightAware ADS-B
Sat 12:09:32 AM 34.8600 -80.5680 202° Southwest 376 433 32,000  Level FlightAware ADS-B
Sat 12:10:22 AM 34.7890 -80.6030 202° Southwest 378 435 32,000  Level FlightAware ADS-B
Sat 12:11:12 AM 34.7210 -80.6390 204° Southwest 378 435 32,000  Level FlightAware ADS-B
Sat 12:11:52 AM 34.6660 -80.6670 203° Southwest 378 435 32,000  Level FlightAware ADS-B
Sat 12:12:32 AM 34.6110 -80.6950 203° Southwest 378 435 32,000  Level FlightAware ADS-B
Sat 12:13:12 AM 34.5570 -80.7230 203° Southwest 378 435 32,000  Level FlightAware ADS-B
Sat 12:13:52 AM 34.5020 -80.7520 203° Southwest 378 435 32,000  Level FlightAware ADS-B
Sat 12:14:42 AM 34.4340 -80.7870 203° Southwest 378 435 32,000  Level FlightAware ADS-B
Sat 12:15:22 AM 34.3790 -80.8150 203° Southwest 378 435 32,000  Level FlightAware ADS-B
Sat 12:16:12 AM 34.2160 -80.8830 199° South 381 438 32,000  Level FlightAware ADS-B
Sat 12:16:55 AM 34.1506 -80.9153 199° South 375 432 32,000  Level Jacksonville Center
Sat 12:17:55 AM 34.0533 -80.9625 202° Southwest 375 432 32,000  Level Jacksonville Center
Sat 12:18:56 AM 33.9558 -81.0072 201° Southwest 375 432 32,000  Level Jacksonville Center
Sat 12:19:55 AM 33.8500 -81.0519 199° South 375 432 32,000  Level Jacksonville Center
Sat 12:20:55 AM 33.7647 -81.0639 187° South 375 432 32,000 -50 Level Jacksonville Center
Sat 12:21:55 AM 33.6481 -81.0736 184° South 380 437 31,900 -50 Descending Jacksonville Center
Sat 12:22:55 AM 33.5397 -81.0858 185° South 390 449 31,900 50 Level Jacksonville Center
Sat 12:23:56 AM 33.4314 -81.0956 184° South 390 449 32,000 50 Climbing Jacksonville Center
Sat 12:24:55 AM 33.3208 -81.1028 183° South 395 455 32,000  Level Jacksonville Center
Sat 12:25:55 AM 33.2103 -81.1125 184° South 395 455 32,000  Level Jacksonville Center
Sat 12:31:52 AM 32.5350 -81.1670 184° South 414 476 32,000  Level FlightAware ADS-B
Sat 12:32:32 AM 32.4710 -81.1740 185° South 414 476 32,000  Level FlightAware ADS-B
Sat 12:33:22 AM 32.3890 -81.1820 185° South 414 476 32,000  Level FlightAware ADS-B
Sat 12:34:02 AM 32.3250 -81.1890 185° South 414 476 32,000  Level FlightAware ADS-B
Sat 12:34:42 AM 32.2600 -81.1960 185° South 414 476 32,000  Level FlightAware ADS-B
Sat 12:35:22 AM 32.1390 -81.1980 181° South 418 481 32,000  Level FlightAware ADS-B
Sat 12:36:12 AM 32.0280 -81.1950 179° South 422 486 32,000  Level FlightAware ADS-B
Sat 12:36:42 AM 31.9760 -81.1940 179° South 423 487 32,000  Level FlightAware ADS-B
Sat 12:37:32 AM 31.8890 -81.1910 178° South 425 489 32,000  Level FlightAware ADS-B
Sat 12:38:27 AM 31.7810 -81.1870 178° South 425 489 32,000  Level FlightAware ADS-B
Sat 12:39:02 AM 31.7010 -81.1850 179° South 427 491 32,000  Level FlightAware ADS-B
Sat 12:39:47 AM 31.6200 -81.1820 178° South 427 491 32,000  Level FlightAware ADS-B
Sat 12:40:37 AM 31.5250 -81.1790 178° South 428 493 32,000  Level FlightAware ADS-B
Sat 12:41:17 AM 31.4340 -81.1760 178° South 429 494 32,000  Level FlightAware ADS-B
Sat 12:41:57 AM 31.3660 -81.1730 178° South 429 494 32,000  Level FlightAware ADS-B
Sat 12:42:37 AM 31.2990 -81.1700 178° South 429 494 32,000  Level FlightAware ADS-B
Sat 12:43:17 AM 31.2310 -81.1680 179° South 429 494 32,000  Level FlightAware ADS-B
Sat 12:44:07 AM 31.1470 -81.1640 178° South 429 494 32,000  Level FlightAware ADS-B
Sat 12:44:47 AM 31.0800 -81.1610 178° South 429 494 32,000  Level FlightAware ADS-B
Sat 12:45:27 AM 31.0120 -81.1590 179° South 429 494 32,000  Level FlightAware ADS-B
Sat 12:46:07 AM 30.9450 -81.1560 178° South 429 494 32,000  Level FlightAware ADS-B
Sat 12:46:47 AM 30.8770 -81.1530 178° South 429 494 32,000  Level FlightAware ADS-B
Sat 12:47:27 AM 30.8100 -81.1500 178° South 429 494 32,000  Level FlightAware ADS-B
Sat 12:48:17 AM 30.7250 -81.1470 178° South 429 494 32,000  Level FlightAware ADS-B
Sat 12:48:57 AM 30.6580 -81.1440 178° South 429 494 32,000  Level FlightAware ADS-B
Sat 12:49:37 AM 30.5910 -81.1410 178° South 429 494 32,000  Level FlightAware ADS-B
Sat 12:50:17 AM 30.5230 -81.1390 179° South 429 494 32,000  Level FlightAware ADS-B
Sat 12:50:55 AM 30.2525 -81.1419 179° South 441 507 32,000 -429 Level Jacksonville Center
Sat 12:51:55 AM 30.1292 -81.1394 179° South 441 507 31,300 -1,100 Descending Jacksonville Center
Sat 12:52:55 AM 30.0039 -81.1344 178° South 441 507 29,800 -1,900 Descending Jacksonville Center
Sat 12:53:55 AM 29.8764 -81.1319 179° South 441 507 27,500 -2,250 Descending Jacksonville Center
Sat 12:54:55 AM 29.7575 -81.1269 178° South 441 507 25,300 -2,150 Descending Jacksonville Center
Sat 12:55:55 AM 29.6447 -81.1242 179° South 433 498 23,200 -2,100 Descending Jacksonville Center
Sat 12:56:55 AM 29.5381 -81.1239 180° South 412 474 21,100 -1,730 Descending Jacksonville Center
Sat 01:02:27 AM 28.9990 -81.0870 180° South 275 316 11,900 -1,576 Descending FlightAware ADS-B
Sat 01:03:12 AM 28.9410 -81.0770 171° South 277 319 11,200 -1,333 Descending FlightAware ADS-B
Sat 01:03:57 AM 28.8850 -81.0680 172° South 278 320 9,900 -1,700 Descending FlightAware ADS-B
Sat 01:04:12 AM 28.8620 -81.0640 171° South 275 316 9,500 -1,371 Descending FlightAware ADS-B
Sat 01:04:32 AM 28.8420 -81.0600 170° South 281 323 9,100 -1,800 Descending FlightAware ADS-B
Sat 01:05:22 AM 28.7740 -81.0650 184° South 271 312 7,400 -1,800 Descending FlightAware ADS-B
Sat 01:05:42 AM 28.7590 -81.0850 229° Southwest 265 305 7,000 -1,200 Descending FlightAware ADS-B
Sat 01:05:57 AM 28.7530 -81.1050 251° West 262 302 6,700 -1,371 Descending FlightAware ADS-B
Sat 01:06:17 AM 28.7490 -81.1350 261° West 259 298 6,200 -1,067 Descending FlightAware ADS-B
Sat 01:06:42 AM 28.7460 -81.1670 264° West 252 290 5,900 -1,080 Descending FlightAware ADS-B
Sat 01:07:07 AM 28.7430 -81.1940 263° West 251 289 5,300 -1,714 Descending FlightAware ADS-B
Sat 01:07:52 AM 28.7360 -81.2590 263° West 254 292 3,900 -1,520 Descending FlightAware ADS-B
Sat 01:08:22 AM 28.7320 -81.2990 264° West 235 270 3,400 -800 Descending FlightAware ADS-B
Sat 01:08:37 AM 28.7300 -81.3150 262° West 220 253 3,300 -750 Descending FlightAware ADS-B
Sat 01:09:02 AM 28.7120 -81.3330 221° Southwest 195 224 2,900 -436 Descending FlightAware ADS-B
Sat 01:09:32 AM 28.6870 -81.3330 180° South 165 190 2,900 -120 Level FlightAware ADS-B
Sat 01:09:52 AM 28.6710 -81.3320 177° South 162 186 2,800 -764 Descending FlightAware ADS-B
Sat 01:10:27 AM 28.6430 -81.3270 171° South 162 186 2,200 -646 Descending FlightAware ADS-B
Sat 01:10:57 AM 28.6190 -81.3250 176° South 165 190 2,100 -109 Descending FlightAware ADS-B
Sat 01:11:22 AM 28.5990 -81.3240 177° South 165 190 2,100  Level FlightAware ADS-B
Sat 01:11:52 AM 28.5760 -81.3230 178° South 162 186 2,100  Level FlightAware ADS-B
Sat 01:12:22 AM 28.5530 -81.3230 180° South 148 170 2,100  Level FlightAware ADS-B
Sat 01:12:47 AM 28.5370 -81.3230 180° South 130 150 2,100 -667 Level FlightAware ADS-B
Sat 01:13:07 AM 28.5240 -81.3230 180° South 129 148 1,600 -1,091 Descending FlightAware ADS-B
Sat 01:13:42 AM 28.5030 -81.3230 180° South 132 152 1,100 -800 Descending FlightAware ADS-B
Sat 01:14:07 AM 28.4880 -81.3230 180° South 131 151 800 -720 Descending FlightAware ADS-B
Sat 01:14:32 AM 28.4730 -81.3230 180° South 131 151 500 -720 Descending FlightAware ADS-B
Sat 01:15:17 AM 28.4460 -81.3220 178° South 131 151 -667 Descending FlightAware ADS-B

Login

Don't have an account? Register now (free) for customized features, flight alerts, and more!